sensor_id;sensor_type;location;lat;lon;timestamp;P1;durP1;ratioP1;P2;durP2;ratioP2
14013;SDS011;49110;52.584;13.408;2022-11-21T00:00:23;12.33;;;8.30;;
14013;SDS011;49110;52.584;13.408;2022-11-21T00:01:25;12.20;;;8.52;;
14013;SDS011;49110;52.584;13.408;2022-11-21T00:02:27;11.88;;;8.13;;
14013;SDS011;49110;52.584;13.408;2022-11-21T00:03:28;11.80;;;8.10;;
14013;SDS011;49110;52.584;13.408;2022-11-21T00:04:29;14.27;;;8.87;;
14013;SDS011;49110;52.584;13.408;2022-11-21T00:05:30;12.90;;;9.55;;
14013;SDS011;49110;52.584;13.408;2022-11-21T00:06:31;11.98;;;8.35;;
14013;SDS011;49110;52.584;13.408;2022-11-21T00:07:32;13.17;;;8.83;;
14013;SDS011;49110;52.584;13.408;2022-11-21T00:08:32;11.07;;;7.83;;
14013;SDS011;49110;52.584;13.408;2022-11-21T00:09:33;12.83;;;7.90;;
14013;SDS011;49110;52.584;13.408;2022-11-21T00:10:36;12.10;;;8.45;;
14013;SDS011;49110;52.584;13.408;2022-11-21T00:11:37;10.15;;;7.95;;
14013;SDS011;49110;52.584;13.408;2022-11-21T00:12:38;12.13;;;8.33;;
14013;SDS011;49110;52.584;13.408;2022-11-21T00:13:38;11.93;;;7.70;;
14013;SDS011;49110;52.584;13.408;2022-11-21T00:14:39;13.37;;;8.60;;
14013;SDS011;49110;52.584;13.408;2022-11-21T00:15:39;12.53;;;8.73;;
14013;SDS011;49110;52.584;13.408;2022-11-21T00:16:40;13.87;;;8.63;;
14013;SDS011;49110;52.584;13.408;2022-11-21T00:17:40;11.97;;;8.90;;
14013;SDS011;49110;52.584;13.408;2022-11-21T00:18:41;13.80;;;9.60;;
14013;SDS011;49110;52.584;13.408;2022-11-21T00:19:43;11.85;;;8.57;;
14013;SDS011;49110;52.584;13.408;2022-11-21T00:20:43;15.27;;;9.40;;
14013;SDS011;49110;52.584;13.408;2022-11-21T00:21:43;12.60;;;9.17;;
14013;SDS011;49110;52.584;13.408;2022-11-21T00:22:44;16.13;;;9.00;;
14013;SDS011;49110;52.584;13.408;2022-11-21T00:23:45;13.00;;;8.47;;
14013;SDS011;49110;52.584;13.408;2022-11-21T00:24:46;11.27;;;7.85;;
14013;SDS011;49110;52.584;13.408;2022-11-21T00:25:47;11.37;;;8.00;;
14013;SDS011;49110;52.584;13.408;2022-11-21T00:26:47;14.60;;;8.30;;
14013;SDS011;49110;52.584;13.408;2022-11-21T00:27:47;10.80;;;7.87;;
14013;SDS011;49110;52.584;13.408;2022-11-21T00:28:48;10.97;;;7.47;;
14013;SDS011;49110;52.584;13.408;2022-11-21T00:29:48;13.00;;;8.37;;
14013;SDS011;49110;52.584;13.408;2022-11-21T00:30:49;13.23;;;8.20;;
14013;SDS011;49110;52.584;13.408;2022-11-21T00:31:49;11.27;;;7.87;;
14013;SDS011;49110;52.584;13.408;2022-11-21T00:32:50;10.37;;;8.10;;
14013;SDS011;49110;52.584;13.408;2022-11-21T00:33:50;12.40;;;8.43;;
14013;SDS011;49110;52.584;13.408;2022-11-21T00:34:51;10.73;;;7.63;;
14013;SDS011;49110;52.584;13.408;2022-11-21T00:35:51;12.07;;;8.73;;
14013;SDS011;49110;52.584;13.408;2022-11-21T00:36:52;12.73;;;8.40;;
14013;SDS011;49110;52.584;13.408;2022-11-21T00:37:52;14.40;;;9.03;;
14013;SDS011;49110;52.584;13.408;2022-11-21T00:38:53;12.40;;;8.27;;
14013;SDS011;49110;52.584;13.408;2022-11-21T00:39:53;15.00;;;9.27;;
14013;SDS011;49110;52.584;13.408;2022-11-21T00:40:54;13.17;;;8.90;;
14013;SDS011;49110;52.584;13.408;2022-11-21T00:41:54;12.30;;;8.80;;
14013;SDS011;49110;52.584;13.408;2022-11-21T00:42:55;14.57;;;8.47;;
14013;SDS011;49110;52.584;13.408;2022-11-21T00:43:55;12.40;;;8.77;;
14013;SDS011;49110;52.584;13.408;2022-11-21T00:44:56;18.40;;;9.13;;
14013;SDS011;49110;52.584;13.408;2022-11-21T00:45:56;14.83;;;9.03;;
14013;SDS011;49110;52.584;13.408;2022-11-21T00:47:00;15.13;;;9.38;;
14013;SDS011;49110;52.584;13.408;2022-11-21T00:48:00;13.03;;;8.90;;
14013;SDS011;49110;52.584;13.408;2022-11-21T00:49:01;15.93;;;9.57;;
14013;SDS011;49110;52.584;13.408;2022-11-21T00:50:01;15.90;;;9.50;;
14013;SDS011;49110;52.584;13.408;2022-11-21T00:51:02;14.23;;;9.37;;
14013;SDS011;49110;52.584;13.408;2022-11-21T00:52:02;14.83;;;9.80;;
14013;SDS011;49110;52.584;13.408;2022-11-21T00:53:03;14.63;;;9.70;;
14013;SDS011;49110;52.584;13.408;2022-11-21T00:54:03;15.27;;;10.43;;
14013;SDS011;49110;52.584;13.408;2022-11-21T00:55:04;18.27;;;10.37;;
14013;SDS011;49110;52.584;13.408;2022-11-21T00:56:04;15.87;;;10.27;;
14013;SDS011;49110;52.584;13.408;2022-11-21T00:57:05;15.53;;;10.27;;
14013;SDS011;49110;52.584;13.408;2022-11-21T00:58:05;16.00;;;10.73;;
14013;SDS011;49110;52.584;13.408;2022-11-21T00:59:06;15.40;;;9.87;;
14013;SDS011;49110;52.584;13.408;2022-11-21T01:00:07;17.13;;;10.23;;
14013;SDS011;49110;52.584;13.408;2022-11-21T01:01:09;17.50;;;10.65;;
14013;SDS011;49110;52.584;13.408;2022-11-21T01:02:11;16.55;;;10.52;;
14013;SDS011;49110;52.584;13.408;2022-11-21T01:03:12;18.17;;;10.75;;
14013;SDS011;49110;52.584;13.408;2022-11-21T01:04:13;15.80;;;10.30;;
14013;SDS011;49110;52.584;13.408;2022-11-21T01:05:13;18.13;;;10.13;;
14013;SDS011;49110;52.584;13.408;2022-11-21T01:06:14;18.67;;;11.00;;
14013;SDS011;49110;52.584;13.408;2022-11-21T01:07:15;19.27;;;11.30;;
14013;SDS011;49110;52.584;13.408;2022-11-21T01:08:15;19.43;;;11.53;;
14013;SDS011;49110;52.584;13.408;2022-11-21T01:09:16;24.77;;;13.23;;
14013;SDS011;49110;52.584;13.408;2022-11-21T01:10:16;21.27;;;12.70;;
14013;SDS011;49110;52.584;13.408;2022-11-21T01:11:18;19.57;;;12.23;;
14013;SDS011;49110;52.584;13.408;2022-11-21T01:12:19;21.48;;;12.05;;
14013;SDS011;49110;52.584;13.408;2022-11-21T01:13:20;18.37;;;11.13;;
14013;SDS011;49110;52.584;13.408;2022-11-21T01:14:20;21.17;;;12.10;;
14013;SDS011;49110;52.584;13.408;2022-11-21T01:15:21;20.67;;;11.47;;
14013;SDS011;49110;52.584;13.408;2022-11-21T01:16:22;18.90;;;11.73;;
14013;SDS011;49110;52.584;13.408;2022-11-21T01:17:24;19.15;;;11.32;;
14013;SDS011;49110;52.584;13.408;2022-11-21T01:18:24;18.57;;;10.90;;
14013;SDS011;49110;52.584;13.408;2022-11-21T01:19:25;17.47;;;10.83;;
14013;SDS011;49110;52.584;13.408;2022-11-21T01:20:25;20.77;;;11.00;;
14013;SDS011;49110;52.584;13.408;2022-11-21T01:21:27;17.03;;;11.00;;
14013;SDS011;49110;52.584;13.408;2022-11-21T01:22:29;17.63;;;10.65;;
14013;SDS011;49110;52.584;13.408;2022-11-21T01:23:29;17.83;;;10.97;;
14013;SDS011;49110;52.584;13.408;2022-11-21T01:24:30;17.23;;;11.10;;
14013;SDS011;49110;52.584;13.408;2022-11-21T01:25:32;18.30;;;11.30;;
14013;SDS011;49110;52.584;13.408;2022-11-21T01:26:33;17.58;;;10.23;;
14013;SDS011;49110;52.584;13.408;2022-11-21T01:27:36;17.45;;;11.00;;
14013;SDS011;49110;52.584;13.408;2022-11-21T01:28:37;17.60;;;11.03;;
14013;SDS011;49110;52.584;13.408;2022-11-21T01:29:38;16.63;;;10.30;;
14013;SDS011;49110;52.584;13.408;2022-11-21T01:30:38;19.27;;;11.00;;
14013;SDS011;49110;52.584;13.408;2022-11-21T01:31:39;18.50;;;10.40;;
14013;SDS011;49110;52.584;13.408;2022-11-21T01:32:39;17.50;;;10.90;;
14013;SDS011;49110;52.584;13.408;2022-11-21T01:33:40;15.00;;;10.20;;
14013;SDS011;49110;52.584;13.408;2022-11-21T01:34:41;17.27;;;11.30;;
14013;SDS011;49110;52.584;13.408;2022-11-21T01:35:42;17.17;;;11.17;;
14013;SDS011;49110;52.584;13.408;2022-11-21T01:36:42;16.07;;;10.57;;
14013;SDS011;49110;52.584;13.408;2022-11-21T01:37:45;16.43;;;10.23;;
14013;SDS011;49110;52.584;13.408;2022-11-21T01:38:48;18.55;;;11.35;;
14013;SDS011;49110;52.584;13.408;2022-11-21T01:39:51;18.00;;;11.27;;
14013;SDS011;49110;52.584;13.408;2022-11-21T01:40:51;16.97;;;10.93;;
14013;SDS011;49110;52.584;13.408;2022-11-21T01:41:52;20.60;;;11.87;;
14013;SDS011;49110;52.584;13.408;2022-11-21T01:42:54;16.37;;;10.53;;
14013;SDS011;49110;52.584;13.408;2022-11-21T01:44:02;15.18;;;10.48;;
14013;SDS011;49110;52.584;13.408;2022-11-21T01:46:51;16.45;;;10.38;;
14013;SDS011;49110;52.584;13.408;2022-11-21T01:47:52;19.10;;;11.57;;
14013;SDS011;49110;52.584;13.408;2022-11-21T01:49:55;16.80;;;10.55;;
14013;SDS011;49110;52.584;13.408;2022-11-21T01:50:57;18.07;;;10.43;;
14013;SDS011;49110;52.584;13.408;2022-11-21T01:53:28;17.92;;;11.07;;
14013;SDS011;49110;52.584;13.408;2022-11-21T01:54:29;15.27;;;9.90;;
14013;SDS011;49110;52.584;13.408;2022-11-21T01:55:35;16.08;;;10.77;;
14013;SDS011;49110;52.584;13.408;2022-11-21T01:56:38;15.40;;;10.23;;
14013;SDS011;49110;52.584;13.408;2022-11-21T01:57:43;17.50;;;11.00;;
14013;SDS011;49110;52.584;13.408;2022-11-21T01:58:47;17.30;;;10.30;;
14013;SDS011;49110;52.584;13.408;2022-11-21T02:00:05;16.67;;;10.27;;
14013;SDS011;49110;52.584;13.408;2022-11-21T02:01:10;20.67;;;11.88;;
14013;SDS011;49110;52.584;13.408;2022-11-21T02:02:11;18.50;;;11.27;;
14013;SDS011;49110;52.584;13.408;2022-11-21T02:03:14;17.65;;;11.52;;
14013;SDS011;49110;52.584;13.408;2022-11-21T02:04:19;19.55;;;11.57;;
14013;SDS011;49110;52.584;13.408;2022-11-21T02:05:22;19.52;;;11.32;;
14013;SDS011;49110;52.584;13.408;2022-11-21T02:06:26;19.25;;;11.32;;
14013;SDS011;49110;52.584;13.408;2022-11-21T02:07:29;18.90;;;11.38;;
14013;SDS011;49110;52.584;13.408;2022-11-21T02:08:33;18.58;;;11.40;;
14013;SDS011;49110;52.584;13.408;2022-11-21T02:09:36;18.35;;;10.77;;
14013;SDS011;49110;52.584;13.408;2022-11-21T02:10:40;18.73;;;11.32;;
14013;SDS011;49110;52.584;13.408;2022-11-21T02:11:53;16.67;;;10.88;;
14013;SDS011;49110;52.584;13.408;2022-11-21T02:12:57;17.85;;;11.18;;
14013;SDS011;49110;52.584;13.408;2022-11-21T02:13:59;17.98;;;11.32;;
14013;SDS011;49110;52.584;13.408;2022-11-21T02:15:00;16.70;;;11.27;;
14013;SDS011;49110;52.584;13.408;2022-11-21T02:16:01;19.50;;;10.97;;
14013;SDS011;49110;52.584;13.408;2022-11-21T02:17:03;17.92;;;11.50;;
14013;SDS011;49110;52.584;13.408;2022-11-21T02:18:08;20.00;;;11.20;;
14013;SDS011;49110;52.584;13.408;2022-11-21T02:19:09;17.52;;;10.93;;
14013;SDS011;49110;52.584;13.408;2022-11-21T02:20:19;18.70;;;11.18;;
14013;SDS011;49110;52.584;13.408;2022-11-21T02:23:57;20.00;;;11.45;;
14013;SDS011;49110;52.584;13.408;2022-11-21T02:25:03;19.40;;;11.55;;
14013;SDS011;49110;52.584;13.408;2022-11-21T02:26:07;18.02;;;11.18;;
14013;SDS011;49110;52.584;13.408;2022-11-21T02:27:08;17.13;;;11.50;;
14013;SDS011;49110;52.584;13.408;2022-11-21T02:28:15;18.95;;;11.73;;
14013;SDS011;49110;52.584;13.408;2022-11-21T02:29:19;17.10;;;10.70;;
14013;SDS011;49110;52.584;13.408;2022-11-21T02:30:19;19.07;;;11.30;;
14013;SDS011;49110;52.584;13.408;2022-11-21T02:31:20;17.70;;;10.97;;
14013;SDS011;49110;52.584;13.408;2022-11-21T02:32:21;18.13;;;11.50;;
14013;SDS011;49110;52.584;13.408;2022-11-21T02:33:23;16.40;;;10.95;;
14013;SDS011;49110;52.584;13.408;2022-11-21T02:34:24;19.97;;;11.90;;
14013;SDS011;49110;52.584;13.408;2022-11-21T02:35:24;17.67;;;10.30;;
14013;SDS011;49110;52.584;13.408;2022-11-21T02:36:35;17.03;;;11.47;;
14013;SDS011;49110;52.584;13.408;2022-11-21T02:37:42;17.45;;;11.02;;
14013;SDS011;49110;52.584;13.408;2022-11-21T02:38:47;19.70;;;12.18;;
14013;SDS011;49110;52.584;13.408;2022-11-21T02:39:47;19.80;;;12.67;;
14013;SDS011;49110;52.584;13.408;2022-11-21T02:40:56;16.83;;;11.52;;
14013;SDS011;49110;52.584;13.408;2022-11-21T02:42:10;17.90;;;11.30;;
14013;SDS011;49110;52.584;13.408;2022-11-21T02:43:21;17.35;;;10.63;;
14013;SDS011;49110;52.584;13.408;2022-11-21T02:46:29;18.80;;;10.90;;
14013;SDS011;49110;52.584;13.408;2022-11-21T02:47:30;14.97;;;10.23;;
14013;SDS011;49110;52.584;13.408;2022-11-21T02:48:32;17.50;;;10.95;;
14013;SDS011;49110;52.584;13.408;2022-11-21T02:49:39;17.27;;;11.00;;
14013;SDS011;49110;52.584;13.408;2022-11-21T02:50:47;16.80;;;10.23;;
14013;SDS011;49110;52.584;13.408;2022-11-21T02:51:48;17.33;;;11.37;;
14013;SDS011;49110;52.584;13.408;2022-11-21T02:52:48;16.60;;;11.00;;
14013;SDS011;49110;52.584;13.408;2022-11-21T02:53:49;18.40;;;11.20;;
14013;SDS011;49110;52.584;13.408;2022-11-21T02:54:49;15.43;;;10.63;;
14013;SDS011;49110;52.584;13.408;2022-11-21T02:55:50;19.63;;;11.30;;
14013;SDS011;49110;52.584;13.408;2022-11-21T02:56:50;18.20;;;11.60;;
14013;SDS011;49110;52.584;13.408;2022-11-21T02:57:51;17.33;;;10.67;;
14013;SDS011;49110;52.584;13.408;2022-11-21T02:58:52;19.35;;;11.45;;
14013;SDS011;49110;52.584;13.408;2022-11-21T02:59:52;18.23;;;11.43;;
14013;SDS011;49110;52.584;13.408;2022-11-21T03:00:53;19.33;;;11.67;;
14013;SDS011;49110;52.584;13.408;2022-11-21T03:01:58;16.40;;;10.95;;
14013;SDS011;49110;52.584;13.408;2022-11-21T03:02:59;18.48;;;11.65;;
14013;SDS011;49110;52.584;13.408;2022-11-21T03:04:00;16.93;;;11.03;;
14013;SDS011;49110;52.584;13.408;2022-11-21T03:05:01;18.87;;;11.77;;
14013;SDS011;49110;52.584;13.408;2022-11-21T03:06:02;19.50;;;11.13;;
14013;SDS011;49110;52.584;13.408;2022-11-21T03:07:03;17.53;;;11.60;;
14013;SDS011;49110;52.584;13.408;2022-11-21T03:08:04;18.77;;;10.93;;
14013;SDS011;49110;52.584;13.408;2022-11-21T03:09:04;18.67;;;11.00;;
14013;SDS011;49110;52.584;13.408;2022-11-21T03:10:05;17.83;;;11.90;;
14013;SDS011;49110;52.584;13.408;2022-11-21T03:11:06;19.37;;;12.23;;
14013;SDS011;49110;52.584;13.408;2022-11-21T03:12:09;17.53;;;11.37;;
14013;SDS011;49110;52.584;13.408;2022-11-21T03:13:09;15.65;;;10.82;;
14013;SDS011;49110;52.584;13.408;2022-11-21T03:14:10;18.33;;;10.67;;
14013;SDS011;49110;52.584;13.408;2022-11-21T03:15:11;17.83;;;10.93;;
14013;SDS011;49110;52.584;13.408;2022-11-21T03:16:13;17.73;;;11.93;;
14013;SDS011;49110;52.584;13.408;2022-11-21T03:17:14;17.03;;;11.20;;
14013;SDS011;49110;52.584;13.408;2022-11-21T03:18:14;17.40;;;11.37;;
14013;SDS011;49110;52.584;13.408;2022-11-21T03:19:15;18.00;;;11.63;;
14013;SDS011;49110;52.584;13.408;2022-11-21T03:20:15;17.07;;;11.23;;
14013;SDS011;49110;52.584;13.408;2022-11-21T03:21:16;17.43;;;11.47;;
14013;SDS011;49110;52.584;13.408;2022-11-21T03:22:16;17.80;;;11.07;;
14013;SDS011;49110;52.584;13.408;2022-11-21T03:23:17;17.07;;;10.53;;
14013;SDS011;49110;52.584;13.408;2022-11-21T03:24:17;19.30;;;11.13;;
14013;SDS011;49110;52.584;13.408;2022-11-21T03:25:18;21.10;;;11.53;;
14013;SDS011;49110;52.584;13.408;2022-11-21T03:26:19;17.70;;;11.32;;
14013;SDS011;49110;52.584;13.408;2022-11-21T03:27:19;16.17;;;10.93;;
14013;SDS011;49110;52.584;13.408;2022-11-21T03:28:20;18.37;;;11.57;;
14013;SDS011;49110;52.584;13.408;2022-11-21T03:29:20;17.33;;;11.40;;
14013;SDS011;49110;52.584;13.408;2022-11-21T03:30:21;16.23;;;10.70;;
14013;SDS011;49110;52.584;13.408;2022-11-21T03:31:23;17.42;;;11.18;;
14013;SDS011;49110;52.584;13.408;2022-11-21T03:32:24;18.63;;;11.60;;
14013;SDS011;49110;52.584;13.408;2022-11-21T03:33:24;20.33;;;12.20;;
14013;SDS011;49110;52.584;13.408;2022-11-21T03:34:25;20.20;;;12.47;;
14013;SDS011;49110;52.584;13.408;2022-11-21T03:35:25;18.00;;;11.50;;
14013;SDS011;49110;52.584;13.408;2022-11-21T03:36:26;18.87;;;12.03;;
14013;SDS011;49110;52.584;13.408;2022-11-21T03:37:26;20.03;;;12.33;;
14013;SDS011;49110;52.584;13.408;2022-11-21T03:38:27;19.23;;;11.83;;
14013;SDS011;49110;52.584;13.408;2022-11-21T03:39:30;18.50;;;12.03;;
14013;SDS011;49110;52.584;13.408;2022-11-21T03:40:31;20.27;;;12.82;;
14013;SDS011;49110;52.584;13.408;2022-11-21T03:41:31;17.13;;;12.57;;
14013;SDS011;49110;52.584;13.408;2022-11-21T03:42:32;27.77;;;13.80;;
14013;SDS011;49110;52.584;13.408;2022-11-21T03:43:32;19.47;;;11.87;;
14013;SDS011;49110;52.584;13.408;2022-11-21T03:44:32;19.97;;;12.33;;
14013;SDS011;49110;52.584;13.408;2022-11-21T03:45:33;17.33;;;12.13;;
14013;SDS011;49110;52.584;13.408;2022-11-21T03:46:34;19.50;;;11.60;;
14013;SDS011;49110;52.584;13.408;2022-11-21T03:47:36;18.35;;;11.65;;
14013;SDS011;49110;52.584;13.408;2022-11-21T03:48:37;19.80;;;11.80;;
14013;SDS011;49110;52.584;13.408;2022-11-21T03:49:38;16.42;;;10.68;;
14013;SDS011;49110;52.584;13.408;2022-11-21T03:50:40;16.03;;;10.63;;
14013;SDS011;49110;52.584;13.408;2022-11-21T03:51:42;16.92;;;10.90;;
14013;SDS011;49110;52.584;13.408;2022-11-21T03:52:43;16.23;;;10.85;;
14013;SDS011;49110;52.584;13.408;2022-11-21T03:53:44;19.10;;;11.17;;
14013;SDS011;49110;52.584;13.408;2022-11-21T03:54:44;15.57;;;11.13;;
14013;SDS011;49110;52.584;13.408;2022-11-21T03:55:45;21.17;;;12.03;;
14013;SDS011;49110;52.584;13.408;2022-11-21T03:56:45;20.93;;;11.93;;
14013;SDS011;49110;52.584;13.408;2022-11-21T03:57:46;17.83;;;11.33;;
14013;SDS011;49110;52.584;13.408;2022-11-21T03:58:46;18.43;;;11.50;;
14013;SDS011;49110;52.584;13.408;2022-11-21T03:59:47;16.63;;;11.47;;
14013;SDS011;49110;52.584;13.408;2022-11-21T04:00:47;21.73;;;11.43;;
14013;SDS011;49110;52.584;13.408;2022-11-21T04:01:48;18.50;;;11.40;;
14013;SDS011;49110;52.584;13.408;2022-11-21T04:02:48;18.87;;;11.23;;
14013;SDS011;49110;52.584;13.408;2022-11-21T04:03:49;18.07;;;10.97;;
14013;SDS011;49110;52.584;13.408;2022-11-21T04:04:50;19.67;;;11.75;;
14013;SDS011;49110;52.584;13.408;2022-11-21T04:05:50;17.87;;;11.27;;
14013;SDS011;49110;52.584;13.408;2022-11-21T04:06:51;18.07;;;10.77;;
14013;SDS011;49110;52.584;13.408;2022-11-21T04:07:51;18.93;;;11.83;;
14013;SDS011;49110;52.584;13.408;2022-11-21T04:08:52;15.73;;;11.70;;
14013;SDS011;49110;52.584;13.408;2022-11-21T04:09:53;18.40;;;10.90;;
14013;SDS011;49110;52.584;13.408;2022-11-21T04:10:53;22.57;;;12.03;;
14013;SDS011;49110;52.584;13.408;2022-11-21T04:11:54;18.70;;;11.40;;
14013;SDS011;49110;52.584;13.408;2022-11-21T04:12:54;17.63;;;11.83;;
14013;SDS011;49110;52.584;13.408;2022-11-21T04:13:55;16.73;;;11.47;;
14013;SDS011;49110;52.584;13.408;2022-11-21T04:14:55;17.87;;;11.27;;
14013;SDS011;49110;52.584;13.408;2022-11-21T04:15:56;20.53;;;11.50;;
14013;SDS011;49110;52.584;13.408;2022-11-21T04:16:56;18.13;;;11.37;;
14013;SDS011;49110;52.584;13.408;2022-11-21T04:17:57;18.10;;;11.57;;
14013;SDS011;49110;52.584;13.408;2022-11-21T04:18:57;17.13;;;11.37;;
14013;SDS011;49110;52.584;13.408;2022-11-21T04:19:58;19.37;;;12.37;;
14013;SDS011;49110;52.584;13.408;2022-11-21T04:20:59;21.27;;;12.47;;
14013;SDS011;49110;52.584;13.408;2022-11-21T04:22:04;19.15;;;12.27;;
14013;SDS011;49110;52.584;13.408;2022-11-21T04:23:05;18.97;;;11.93;;
14013;SDS011;49110;52.584;13.408;2022-11-21T04:24:05;17.33;;;12.53;;
14013;SDS011;49110;52.584;13.408;2022-11-21T04:25:06;18.53;;;11.37;;
14013;SDS011;49110;52.584;13.408;2022-11-21T04:26:07;19.10;;;12.00;;
14013;SDS011;49110;52.584;13.408;2022-11-21T04:27:07;18.53;;;12.07;;
14013;SDS011;49110;52.584;13.408;2022-11-21T04:28:10;17.77;;;12.20;;
14013;SDS011;49110;52.584;13.408;2022-11-21T04:29:13;19.30;;;11.43;;
14013;SDS011;49110;52.584;13.408;2022-11-21T04:30:13;18.70;;;10.83;;
14013;SDS011;49110;52.584;13.408;2022-11-21T04:31:14;18.10;;;11.87;;
14013;SDS011;49110;52.584;13.408;2022-11-21T04:32:14;21.53;;;12.67;;
14013;SDS011;49110;52.584;13.408;2022-11-21T04:33:15;20.03;;;12.57;;
14013;SDS011;49110;52.584;13.408;2022-11-21T04:34:16;17.33;;;11.27;;
14013;SDS011;49110;52.584;13.408;2022-11-21T04:35:17;19.23;;;12.30;;
14013;SDS011;49110;52.584;13.408;2022-11-21T04:36:17;20.17;;;12.50;;
14013;SDS011;49110;52.584;13.408;2022-11-21T04:37:18;20.00;;;12.07;;
14013;SDS011;49110;52.584;13.408;2022-11-21T04:38:18;19.17;;;12.10;;
14013;SDS011;49110;52.584;13.408;2022-11-21T04:39:19;20.30;;;12.17;;
14013;SDS011;49110;52.584;13.408;2022-11-21T04:40:19;19.80;;;11.83;;
14013;SDS011;49110;52.584;13.408;2022-11-21T04:41:20;18.33;;;12.33;;
14013;SDS011;49110;52.584;13.408;2022-11-21T04:42:20;20.87;;;12.33;;
14013;SDS011;49110;52.584;13.408;2022-11-21T04:43:21;22.60;;;12.83;;
14013;SDS011;49110;52.584;13.408;2022-11-21T04:44:21;18.90;;;12.10;;
14013;SDS011;49110;52.584;13.408;2022-11-21T04:45:22;19.97;;;12.50;;
14013;SDS011;49110;52.584;13.408;2022-11-21T04:46:22;20.77;;;12.53;;
14013;SDS011;49110;52.584;13.408;2022-11-21T04:47:23;19.57;;;11.80;;
14013;SDS011;49110;52.584;13.408;2022-11-21T04:48:23;19.33;;;11.97;;
14013;SDS011;49110;52.584;13.408;2022-11-21T04:49:24;18.37;;;11.90;;
14013;SDS011;49110;52.584;13.408;2022-11-21T04:50:24;18.93;;;12.80;;
14013;SDS011;49110;52.584;13.408;2022-11-21T04:51:25;21.87;;;11.67;;
14013;SDS011;49110;52.584;13.408;2022-11-21T04:52:25;18.30;;;12.43;;
14013;SDS011;49110;52.584;13.408;2022-11-21T04:53:25;20.70;;;12.67;;
14013;SDS011;49110;52.584;13.408;2022-11-21T04:54:26;19.60;;;12.40;;
14013;SDS011;49110;52.584;13.408;2022-11-21T04:55:28;20.23;;;12.40;;
14013;SDS011;49110;52.584;13.408;2022-11-21T04:56:30;22.63;;;12.70;;
14013;SDS011;49110;52.584;13.408;2022-11-21T04:57:31;20.50;;;12.30;;
14013;SDS011;49110;52.584;13.408;2022-11-21T04:58:32;19.52;;;12.57;;
14013;SDS011;49110;52.584;13.408;2022-11-21T04:59:32;19.13;;;12.00;;
14013;SDS011;49110;52.584;13.408;2022-11-21T05:00:33;20.13;;;12.20;;
14013;SDS011;49110;52.584;13.408;2022-11-21T05:01:34;18.43;;;12.07;;
14013;SDS011;49110;52.584;13.408;2022-11-21T05:02:36;18.30;;;11.77;;
14013;SDS011;49110;52.584;13.408;2022-11-21T05:03:36;20.50;;;12.13;;
14013;SDS011;49110;52.584;13.408;2022-11-21T05:04:37;18.17;;;11.73;;
14013;SDS011;49110;52.584;13.408;2022-11-21T05:05:38;20.63;;;11.77;;
14013;SDS011;49110;52.584;13.408;2022-11-21T05:06:38;19.17;;;12.47;;
14013;SDS011;49110;52.584;13.408;2022-11-21T05:07:39;19.07;;;12.20;;
14013;SDS011;49110;52.584;13.408;2022-11-21T05:08:39;17.57;;;11.50;;
14013;SDS011;49110;52.584;13.408;2022-11-21T05:09:40;18.27;;;11.87;;
14013;SDS011;49110;52.584;13.408;2022-11-21T05:10:41;17.07;;;11.40;;
14013;SDS011;49110;52.584;13.408;2022-11-21T05:12:01;20.17;;;11.98;;
14013;SDS011;49110;52.584;13.408;2022-11-21T05:13:20;16.85;;;10.32;;
14013;SDS011;49110;52.584;13.408;2022-11-21T05:14:21;16.53;;;11.20;;
14013;SDS011;49110;52.584;13.408;2022-11-21T05:15:25;17.17;;;11.52;;
14013;SDS011;49110;52.584;13.408;2022-11-21T05:16:25;16.53;;;11.37;;
14013;SDS011;49110;52.584;13.408;2022-11-21T05:17:28;17.67;;;12.03;;
14013;SDS011;49110;52.584;13.408;2022-11-21T05:18:29;20.75;;;12.30;;
14013;SDS011;49110;52.584;13.408;2022-11-21T05:19:30;18.10;;;11.83;;
14013;SDS011;49110;52.584;13.408;2022-11-21T05:20:30;21.37;;;12.10;;
14013;SDS011;49110;52.584;13.408;2022-11-21T05:21:31;20.10;;;12.43;;
14013;SDS011;49110;52.584;13.408;2022-11-21T05:22:31;19.13;;;12.23;;
14013;SDS011;49110;52.584;13.408;2022-11-21T05:23:32;20.73;;;12.33;;
14013;SDS011;49110;52.584;13.408;2022-11-21T05:24:33;19.03;;;12.13;;
14013;SDS011;49110;52.584;13.408;2022-11-21T05:27:40;16.90;;;11.35;;
14013;SDS011;49110;52.584;13.408;2022-11-21T05:29:13;18.67;;;11.23;;
14013;SDS011;49110;52.584;13.408;2022-11-21T05:30:18;19.52;;;11.45;;
14013;SDS011;49110;52.584;13.408;2022-11-21T05:31:19;17.67;;;11.63;;
14013;SDS011;49110;52.584;13.408;2022-11-21T05:32:19;21.57;;;12.30;;
14013;SDS011;49110;52.584;13.408;2022-11-21T05:33:21;18.75;;;12.25;;
14013;SDS011;49110;52.584;13.408;2022-11-21T05:34:22;21.00;;;12.10;;
14013;SDS011;49110;52.584;13.408;2022-11-21T05:35:22;19.53;;;12.60;;
14013;SDS011;49110;52.584;13.408;2022-11-21T05:36:32;19.50;;;12.37;;
14013;SDS011;49110;52.584;13.408;2022-11-21T05:37:32;19.33;;;12.70;;
14013;SDS011;49110;52.584;13.408;2022-11-21T05:38:33;22.63;;;13.57;;
14013;SDS011;49110;52.584;13.408;2022-11-21T05:39:33;17.20;;;12.37;;
14013;SDS011;49110;52.584;13.408;2022-11-21T05:40:34;22.50;;;13.13;;
14013;SDS011;49110;52.584;13.408;2022-11-21T05:41:34;18.30;;;11.90;;
14013;SDS011;49110;52.584;13.408;2022-11-21T05:42:37;17.97;;;11.93;;
14013;SDS011;49110;52.584;13.408;2022-11-21T05:43:57;22.00;;;12.63;;
14013;SDS011;49110;52.584;13.408;2022-11-21T05:44:58;18.93;;;12.13;;
14013;SDS011;49110;52.584;13.408;2022-11-21T05:45:59;17.35;;;11.77;;
14013;SDS011;49110;52.584;13.408;2022-11-21T05:47:00;19.40;;;11.33;;
14013;SDS011;49110;52.584;13.408;2022-11-21T05:48:01;22.20;;;12.77;;
14013;SDS011;49110;52.584;13.408;2022-11-21T05:49:06;18.98;;;12.52;;
14013;SDS011;49110;52.584;13.408;2022-11-21T05:50:07;19.27;;;12.03;;
14013;SDS011;49110;52.584;13.408;2022-11-21T05:51:08;18.73;;;11.98;;
14013;SDS011;49110;52.584;13.408;2022-11-21T05:52:19;21.27;;;11.85;;
14013;SDS011;49110;52.584;13.408;2022-11-21T05:53:19;19.27;;;12.30;;
14013;SDS011;49110;52.584;13.408;2022-11-21T05:54:20;17.90;;;11.43;;
14013;SDS011;49110;52.584;13.408;2022-11-21T05:55:20;18.03;;;11.43;;
14013;SDS011;49110;52.584;13.408;2022-11-21T05:56:21;16.67;;;12.03;;
14013;SDS011;49110;52.584;13.408;2022-11-21T05:57:21;21.80;;;12.70;;
14013;SDS011;49110;52.584;13.408;2022-11-21T05:58:22;21.13;;;11.70;;
14013;SDS011;49110;52.584;13.408;2022-11-21T05:59:22;20.00;;;12.23;;
14013;SDS011;49110;52.584;13.408;2022-11-21T06:00:23;20.03;;;12.40;;
14013;SDS011;49110;52.584;13.408;2022-11-21T06:01:23;16.63;;;11.00;;
14013;SDS011;49110;52.584;13.408;2022-11-21T06:02:43;20.05;;;12.13;;
14013;SDS011;49110;52.584;13.408;2022-11-21T06:04:02;17.83;;;11.23;;
14013;SDS011;49110;52.584;13.408;2022-11-21T06:05:02;23.00;;;12.73;;
14013;SDS011;49110;52.584;13.408;2022-11-21T06:07:07;18.75;;;12.07;;
14013;SDS011;49110;52.584;13.408;2022-11-21T06:08:08;19.27;;;11.57;;
14013;SDS011;49110;52.584;13.408;2022-11-21T06:09:09;18.77;;;12.27;;